Latest Weather Observations for Camooweal

IDQ60801

Issued at 5:52 pm EST Wednesday 24 April 2019 (issued every 10 minutes, with the page automatically refreshed every 10 minutes)

About weather observations | Map of weather stations | Latest weather observations for QLD | Other Formats
Station Details ID: 037010 Name: CAMOOWEAL TOWNSHIP Lat: -19.92 Lon: 138.12 Height: 231.2 m
Data from the previous 72 hours. | See also: Recent months at Camooweal
Date/Time
EST
Temp
°C
App
Temp
°C
Dew
Point
°C
Rel
Hum
%
Delta-T
°C
Wind Press
QNH
hPa
Press
MSL
hPa
Rain since
9am
mm
Dir  Spd
km/h
Gust
km/h
Spd
kts
Gust
kts
24/05:30pm 30.2 25.3 8.6 26 12.1 SSE 24 35 13 19 1014.4 1013.2 0.0
24/05:00pm 31.1 26.4 9.3 26 12.4 SSE 24 35 13 19 1014.2 1013.0 0.0
24/04:30pm 31.2 25.8 9.4 26 12.4 SSE 28 37 15 20 1014.1 1012.9 0.0
24/04:00pm 31.3 27.2 10.1 27 12.2 SSE 22 35 12 19 1014.1 1012.9 0.0
24/03:30pm 31.3 26.7 9.5 26 12.4 S 24 37 13 20 1014.2 1013.0 0.0
24/03:00pm 31.2 25.8 9.4 26 12.4 SSE 28 39 15 21 1014.7 1013.5 0.0
24/02:30pm 31.6 26.9 9.2 25 12.7 SSE 24 37 13 20 1015.0 1013.8 0.0
24/02:00pm 31.6 27.3 10.9 28 12.1 S 24 33 13 18 1015.4 1014.1 0.0
24/01:30pm 31.5 27.8 10.2 27 12.3 SSE 20 33 11 18 1015.9 1014.6 0.0
24/01:00pm 30.9 26.6 10.8 29 11.7 S 24 35 13 19 1016.4 1015.1 0.0
24/12:30pm 30.7 26.6 11.6 31 11.2 SSE 24 32 13 17 1017.0 1015.7 0.0
24/12:00pm 29.9 26.2 12.8 35 10.2 SSE 24 35 13 19 1017.5 1016.2 0.0
24/11:30am 29.4 26.3 14.4 40 9.2 SSE 24 33 13 18 1018.0 1016.8 0.0
24/11:00am 28.6 25.2 14.8 43 8.4 SSE 26 33 14 18 1018.4 1017.2 0.0
24/10:30am 27.4 24.6 15.4 48 7.4 SE 24 35 13 19 1018.6 1017.4 0.0
24/10:00am 26.4 24.0 16.3 53 6.3 SE 24 39 13 21 1018.5 1017.3 0.0
24/09:30am 25.1 21.9 16.3 58 5.4 SE 28 35 15 19 1018.5 1017.3 0.0
24/09:00am 23.7 20.6 15.5 60 5.0 SE 26 37 14 20 1018.5 1017.3 0.0
24/08:30am 22.6 20.3 14.7 61 4.7 SSE 20 28 11 15 1018.2 1017.0 0.0
24/08:00am 21.6 20.0 14.0 62 4.5 S 15 20 8 11 1017.9 1016.7 0.0
24/07:30am 20.5 19.3 13.9 66 3.9 S 13 15 7 8 1017.7 1016.5 0.0
24/07:00am 20.1 18.8 13.8 67 3.7 S 13 15 7 8 1017.3 1016.0 0.0
24/06:30am 20.1 18.8 13.6 66 3.8 S 13 15 7 8 1017.0 1015.7 0.0
24/06:00am 20.6 19.3 13.6 64 4.1 S 13 17 7 9 1016.6 1015.3 0.0
24/05:30am 21.9 20.7 14.0 61 4.6 S 13 17 7 9 1016.5 1015.2 0.0
24/05:00am 22.4 20.4 14.0 59 4.9 SSE 17 20 9 11 1016.2 1014.9 0.0
24/04:30am 23.0 20.5 14.0 57 5.3 SSE 20 28 11 15 1016.1 1014.8 0.0
24/04:00am 23.3 19.9 13.8 55 5.6 SSE 24 32 13 17 1016.1 1014.8 0.0
24/03:30am 23.7 20.3 13.8 53 5.8 SSE 24 33 13 18 1016.1 1014.8 0.0
24/03:00am 23.7 20.9 13.3 52 6.1 SSE 20 28 11 15 1016.2 1014.9 0.0
24/02:30am 24.1 21.3 13.3 51 6.3 S 20 28 11 15 1016.4 1015.1 0.0
24/02:00am 24.1 21.5 13.3 51 6.3 S 19 24 10 13 1016.4 1015.1 0.0
24/01:30am 24.4 21.6 13.3 50 6.5 S 20 26 11 14 1016.5 1015.2 0.0
24/01:00am 24.7 21.8 13.0 48 6.8 SSE 20 28 11 15 1016.6 1015.3 0.0
24/12:30am 24.9 22.0 12.8 47 7.1 SSE 20 32 11 17 1016.9 1015.6 0.0
24/12:00am 25.2 21.9 12.8 46 7.2 S 22 39 12 21 1017.0 1015.7 0.0
 
Date/Time
EST
Temp
°C
App
Temp
°C
Dew
Point
°C
Rel
Hum
%
Delta-T
°C
Wind Press
QNH
hPa
Press
MSL
hPa
Rain since
9am
mm
Dir  Spd
km/h
Gust
km/h
Spd
kts
Gust
kts
23/11:30pm 25.6 21.5 12.8 45 7.5 SSE 26 33 14 18 1017.1 1015.8 0.0
23/11:00pm 25.9 21.9 13.1 45 7.5 SSE 26 33 14 18 1017.1 1015.8 0.0
23/10:30pm 26.2 21.8 13.0 44 7.8 S 28 39 15 21 1017.2 1015.9 0.0
23/10:00pm 26.5 22.2 13.3 44 7.8 S 28 35 15 19 1017.1 1015.8 0.0
23/09:30pm 27.0 22.4 13.4 43 8.1 S 30 43 16 23 1016.8 1015.5 0.0
23/09:00pm 27.5 23.2 13.1 41 8.5 S 28 39 15 21 1016.6 1015.3 0.0
23/08:30pm 28.1 24.4 12.8 38 9.1 S 24 33 13 18 1016.1 1014.8 0.0
23/08:00pm 28.6 25.0 12.9 38 9.3 S 24 33 13 18 1015.7 1014.4 0.0
23/07:30pm 29.1 25.2 12.1 35 10.0 S 24 32 13 17 1015.2 1013.9 0.0
23/07:00pm 29.7 26.5 11.2 31 10.7 S 19 24 10 13 1014.7 1013.5 0.0
23/06:30pm 30.5 28.1 11.5 31 11.1 S 15 19 8 10 1014.3 1013.1 0.0
23/06:00pm 31.4 28.1 11.7 29 11.6 S 20 26 11 14 1014.1 1012.9 0.0
23/05:30pm 32.1 28.5 11.8 29 12.0 S 22 30 12 16 1014.0 1012.8 0.0
23/05:00pm 31.9 28.8 11.7 29 11.9 S 19 24 10 13 1013.8 1012.6 0.0
23/04:30pm 33.3 30.6 11.8 27 12.8 SE 17 24 9 13 1013.7 1012.4 0.0
23/04:00pm 33.1 30.1 12.1 27 12.6 SSW 19 24 10 13 1013.6 1012.3 0.0
23/03:30pm 33.6 30.8 12.6 28 12.7 SSE 19 28 10 15 1013.7 1012.4 0.0
23/03:00pm 32.8 30.2 11.9 28 12.4 SSE 17 26 9 14 1013.8 1012.6 0.0
23/02:30pm 32.6 29.9 11.7 28 12.4 SE 17 30 9 16 1014.2 1013.0 0.0
23/02:00pm 32.5 29.4 12.2 29 12.1 SSE 20 32 11 17 1014.7 1013.5 0.0
23/01:30pm 32.4 29.4 12.6 30 11.9 SSE 20 30 11 16 1015.0 1013.8 0.0
23/01:00pm 31.7 28.5 13.0 32 11.3 SE 22 35 12 19 1015.8 1014.5 0.0
23/12:30pm 30.9 27.2 12.8 33 10.8 SSE 24 35 13 19 1016.3 1015.0 0.0
23/12:00pm 30.8 27.5 14.0 36 10.2 SE 24 39 13 21 1016.8 1015.5 0.0
23/11:30am 29.5 26.1 13.7 38 9.5 SE 24 33 13 18 1017.4 1016.1 0.0
23/11:00am 28.4 24.6 13.5 40 8.9 SSE 26 33 14 18 1017.8 1016.6 0.0
23/10:30am 28.1 24.5 14.3 42 8.4 SSE 26 37 14 20 1018.0 1016.8 0.0
23/10:00am 26.7 23.2 13.4 43 7.9 SSE 24 32 13 17 1018.3 1017.1 0.0
23/09:30am 25.1 21.9 13.0 47 7.1 SSE 22 32 12 17 1018.1 1016.9 0.0
23/09:00am 23.6 19.7 12.0 48 6.6 SSE 24 30 13 16 1018.1 1016.9 0.0
23/08:30am 22.5 18.1 11.6 50 6.2 SSE 26 33 14 18 1017.9 1016.7 0.0
23/08:00am 21.6 17.8 11.0 51 5.9 S 22 33 12 18 1017.8 1016.6 0.0
23/07:30am 20.8 17.6 11.2 54 5.3 S 19 26 10 14 1017.4 1016.1 0.0
23/07:00am 20.6 17.7 11.0 54 5.3 S 17 22 9 12 1017.1 1015.8 0.0
23/06:30am 20.9 18.0 11.0 53 5.5 S 17 20 9 11 1016.8 1015.5 0.0
23/06:00am 21.3 18.1 11.1 52 5.7 S 19 22 10 12 1016.6 1015.3 0.0
23/05:30am 21.6 18.6 10.7 50 6.0 S 17 22 9 12 1016.4 1015.1 0.0
23/05:00am 22.3 18.4 10.8 48 6.4 S 22 30 12 16 1016.2 1014.9 0.0
23/04:30am 22.5 18.5 10.6 47 6.6 S 22 30 12 16 1016.0 1014.7 0.0
23/04:00am 22.9 19.1 11.0 47 6.7 S 22 33 12 18 1016.0 1014.7 0.0
23/03:30am 23.2 18.9 10.6 45 7.0 S 24 35 13 19 1016.0 1014.7 0.0
23/03:00am 23.6 19.0 11.0 45 7.1 S 26 35 14 19 1016.0 1014.7 0.0
23/02:30am 24.2 19.9 10.8 43 7.5 S 24 33 13 18 1016.2 1014.9 0.0
23/02:00am 24.9 20.2 10.8 41 8.0 S 26 39 14 21 1016.4 1015.1 0.0
23/01:30am 25.3 20.7 11.1 41 8.1 S 26 35 14 19 1016.4 1015.1 0.0
23/01:00am 25.4 21.6 11.2 41 8.1 S 22 32 12 17 1016.6 1015.3 0.0
23/12:30am 25.5 21.4 11.3 41 8.1 S 24 32 13 17 1016.6 1015.3 0.0
23/12:00am 25.6 21.9 11.4 41 8.1 S 22 30 12 16 1016.7 1015.4 0.0
 
Date/Time
EST
Temp
°C
App
Temp
°C
Dew
Point
°C
Rel
Hum
%
Delta-T
°C
Wind Press
QNH
hPa
Press
MSL
hPa
Rain since
9am
mm
Dir  Spd
km/h
Gust
km/h
Spd
kts
Gust
kts
22/11:30pm 25.8 21.7 11.6 41 8.2 S 24 32 13 17 1016.8 1015.5 0.0
22/11:00pm 26.1 22.4 11.5 40 8.4 S 22 28 12 15 1016.9 1015.6 0.0
22/10:30pm 26.5 22.3 11.0 38 8.8 S 24 32 13 17 1016.8 1015.5 0.0
22/10:00pm 27.1 22.9 11.2 37 9.1 S 24 35 13 19 1016.6 1015.3 0.0
22/09:30pm 27.4 23.2 11.0 36 9.4 S 24 32 13 17 1016.5 1015.2 0.0
22/09:00pm 27.6 23.2 10.3 34 9.8 S 24 33 13 18 1016.0 1014.7 0.0
22/08:30pm 27.9 23.3 9.7 32 10.2 S 24 32 13 17 1015.7 1014.4 0.0
22/08:00pm 28.1 24.1 8.9 30 10.7 S 20 28 11 15 1015.4 1014.1 0.0
22/07:30pm 28.7 24.9 9.9 31 10.6 S 20 30 11 16 1015.0 1013.8 0.0
22/07:00pm 29.1 24.5 9.8 30 10.9 S 24 32 13 17 1014.6 1013.4 0.0
22/06:30pm 29.7 25.8 9.3 28 11.5 S 20 30 11 16 1014.3 1013.1 0.0
22/06:00pm 30.5 25.8 9.4 27 12.0 S 24 33 13 18 1014.1 1012.9 0.0
22/05:30pm 31.0 25.5 9.3 26 12.3 S 28 37 15 20 1013.8 1012.6 0.0
22/05:00pm 32.2 26.1 9.7 25 12.9 S 32 41 17 22 1013.4 1012.1 0.0
22/04:30pm 32.4 27.3 9.2 24 13.2 S 26 33 14 18 1013.1 1011.8 0.0
22/04:00pm 32.8 28.6 9.6 24 13.3 S 22 30 12 16 1013.2 1011.9 0.0
22/03:30pm 33.3 28.7 8.0 21 14.2 SSE 22 32 12 17 1012.9 1011.6 0.0
22/03:00pm 33.3 28.8 8.7 22 14.0 S 22 30 12 16 1013.1 1011.8 0.0
22/02:30pm 33.4 28.9 10.1 24 13.5 SSW 24 32 13 17 1013.3 1012.0 0.0
22/02:00pm 32.6 28.9 10.0 25 13.1 SE 20 32 11 17 1013.6 1012.3 0.0
22/01:30pm 32.7 29.5 11.3 27 12.6 S 19 30 10 16 1013.9 1012.7 0.0
22/01:00pm 31.9 28.6 11.7 29 11.9 SE 20 30 11 16 1014.5 1013.3 0.0
22/12:30pm 31.8 28.8 12.6 31 11.5 SSE 20 35 11 19 1014.9 1013.7 0.0
22/12:00pm 30.6 26.8 12.5 33 10.8 SSE 24 33 13 18 1015.5 1014.2 0.0
22/11:30am 29.9 26.3 11.9 33 10.6 SSE 22 32 12 17 1016.0 1014.7 0.0
22/11:00am 29.1 25.3 11.2 33 10.4 SSE 22 33 12 18 1016.3 1015.0 0.0
22/10:30am 28.2 24.8 11.3 35 9.8 SSE 20 30 11 16 1016.5 1015.2 0.0
22/10:00am 26.8 22.5 10.9 37 9.1 SSE 24 32 13 17 1016.5 1015.2 0.0
22/09:30am 25.9 22.0 10.9 39 8.5 SSE 22 28 12 15 1016.4 1015.1 0.0
22/09:00am 24.8 21.0 11.0 42 7.8 S 22 32 12 17 1016.1 1014.8 0.0
22/08:30am 23.3 19.0 10.7 45 7.0 S 24 33 13 18 1016.1 1014.8 0.0
22/08:00am 22.3 18.7 10.5 47 6.5 S 20 26 11 14 1015.8 1014.5 0.0
22/07:30am 21.3 18.6 10.5 50 6.0 S 15 20 8 11 1015.4 1014.1 0.0
22/07:00am 21.1 18.4 10.3 50 5.9 S 15 20 8 11 1014.9 1013.7 0.0
22/06:30am 21.5 18.3 10.0 48 6.3 S 17 20 9 11 1014.5 1013.3 0.0
22/06:00am 22.3 18.8 10.1 46 6.7 SSE 19 24 10 13 1014.0 1012.8 0.0
22/05:30am 22.2 19.2 10.7 48 6.4 S 17 24 9 13 1014.0 1012.8 0.0
22/05:00am 21.3 18.7 10.8 51 5.8 SSW 15 20 8 11 1013.9 1012.7 0.0
22/04:30am 22.4 20.3 11.2 49 6.3 S 13 17 7 9 1013.7 1012.4 0.0
22/04:00am 23.1 21.0 11.2 47 6.7 SSE 13 20 7 11 1013.7 1012.4 0.0
22/03:30am 23.5 21.0 11.2 46 6.9 S 15 20 8 11 1013.7 1012.4 0.0
22/03:00am 23.6 20.7 11.0 45 7.1 S 17 22 9 12 1013.8 1012.6 0.0
22/02:30am 23.9 20.9 10.6 43 7.4 S 17 24 9 13 1013.8 1012.6 0.0
22/02:00am 24.8 22.2 10.7 41 7.9 S 15 20 8 11 1014.0 1012.8 0.0
22/01:30am 25.1 22.1 10.6 40 8.2 S 17 22 9 12 1014.1 1012.9 0.0
22/01:00am 25.4 21.9 10.1 38 8.6 SSE 19 22 10 12 1014.3 1013.1 0.0
22/12:30am 25.7 21.9 9.9 37 8.8 S 20 26 11 14 1014.6 1013.4 0.0
22/12:00am 25.8 21.9 9.6 36 9.0 S 20 26 11 14 1014.8 1013.6 0.0
 
Date/Time
EST
Temp
°C
App
Temp
°C
Dew
Point
°C
Rel
Hum
%
Delta-T
°C
Wind Press
QNH
hPa
Press
MSL
hPa
Rain since
9am
mm
Dir  Spd
km/h
Gust
km/h
Spd
kts
Gust
kts
21/11:30pm 25.9 22.0 9.3 35 9.2 S 20 26 11 14 1015.2 1013.9 0.0
21/11:00pm 25.6 22.2 9.0 35 9.1 S 17 20 9 11 1015.3 1014.0 0.0
21/10:30pm 25.7 22.2 8.7 34 9.3 S 17 20 9 11 1015.2 1013.9 0.0
21/10:00pm 26.0 22.4 8.5 33 9.5 S 17 20 9 11 1015.0 1013.8 0.0
21/09:30pm 26.8 22.9 8.7 32 10.0 S 19 22 10 12 1014.9 1013.7 0.0
21/09:00pm 27.6 23.1 8.5 30 10.5 S 22 30 12 16 1014.7 1013.5 0.0
21/08:30pm 28.3 23.7 8.1 28 11.1 S 22 30 12 16 1014.2 1013.0 0.0
21/08:00pm 29.0 23.9 7.6 26 11.7 S 24 32 13 17 1013.8 1012.6 0.0
21/07:30pm 29.9 24.7 7.2 24 12.4 SSW 24 32 13 17 1013.3 1012.0 0.0
21/07:00pm 30.8 26.4 7.3 23 12.9 SSW 20 30 11 16 1012.9 1011.6 0.0
21/06:30pm 31.1 28.4 7.5 23 13.0 S 11 13 6 7 1012.5 1011.2 0.0
21/06:00pm 31.8 28.8 7.5 22 13.4 SSW 13 20 7 11 1012.2 1010.9 0.0

Other formats

Comma delimited format used in spreadsheet applications
http://www.bom.gov.au/fwo/IDQ60801/IDQ60801.94255.axf

JavaScript Object Notation format (JSON) in row-major order
http://www.bom.gov.au/fwo/IDQ60801/IDQ60801.94255.json

Data quality

Most of these data are generated automatically and are frequently updated. Quality checks on data are not normally performed. It is possible for incorrect values to appear. Refer to information at About Latest Weather Observations and please check the disclaimer before using these data.